sensor_id;sensor_type;location;lat;lon;timestamp;temperature;humidity
55329;DHT22;41205;44.264;19.884;2023-04-25T00:02:18;384.30;2329.60
55329;DHT22;41205;44.264;19.884;2023-04-25T00:04:44;384.10;2329.60
55329;DHT22;41205;44.264;19.884;2023-04-25T00:07:10;384.10;2329.60
55329;DHT22;41205;44.264;19.884;2023-04-25T00:09:36;384.10;2329.60
55329;DHT22;41205;44.264;19.884;2023-04-25T00:12:02;384.10;2329.60
55329;DHT22;41205;44.264;19.884;2023-04-25T00:14:29;384.10;2329.60
55329;DHT22;41205;44.264;19.884;2023-04-25T00:16:55;384.10;2329.60
55329;DHT22;41205;44.264;19.884;2023-04-25T00:19:21;384.10;2329.60
55329;DHT22;41205;44.264;19.884;2023-04-25T00:21:47;384.00;2329.60
55329;DHT22;41205;44.264;19.884;2023-04-25T00:24:13;384.00;2329.60
55329;DHT22;41205;44.264;19.884;2023-04-25T00:26:39;384.00;2329.60
55329;DHT22;41205;44.264;19.884;2023-04-25T00:29:04;359.30;2329.60
55329;DHT22;41205;44.264;19.884;2023-04-25T00:31:30;384.00;2329.60
55329;DHT22;41205;44.264;19.884;2023-04-25T00:33:56;359.30;2329.60
55329;DHT22;41205;44.264;19.884;2023-04-25T00:36:22;359.30;2329.60
55329;DHT22;41205;44.264;19.884;2023-04-25T00:38:47;384.00;2329.60
55329;DHT22;41205;44.264;19.884;2023-04-25T00:41:13;359.30;2329.60
55329;DHT22;41205;44.264;19.884;2023-04-25T00:43:39;359.30;2329.60
55329;DHT22;41205;44.264;19.884;2023-04-25T00:46:05;359.30;2329.60
55329;DHT22;41205;44.264;19.884;2023-04-25T00:48:31;359.20;2329.60
55329;DHT22;41205;44.264;19.884;2023-04-25T00:50:58;359.20;2329.60
55329;DHT22;41205;44.264;19.884;2023-04-25T00:53:26;359.10;2329.60
55329;DHT22;41205;44.264;19.884;2023-04-25T00:55:52;359.10;2329.60
55329;DHT22;41205;44.264;19.884;2023-04-25T00:58:19;359.00;2329.60
55329;DHT22;41205;44.264;19.884;2023-04-25T01:00:46;359.10;2329.60
55329;DHT22;41205;44.264;19.884;2023-04-25T01:03:17;359.10;2329.60
55329;DHT22;41205;44.264;19.884;2023-04-25T01:05:45;359.00;2329.60
55329;DHT22;41205;44.264;19.884;2023-04-25T01:08:12;359.00;2329.60
55329;DHT22;41205;44.264;19.884;2023-04-25T01:10:38;359.00;2329.60
55329;DHT22;41205;44.264;19.884;2023-04-25T01:13:04;359.00;2329.60
55329;DHT22;41205;44.264;19.884;2023-04-25T01:15:30;359.00;2329.60
55329;DHT22;41205;44.264;19.884;2023-04-25T01:17:57;359.10;2329.60
55329;DHT22;41205;44.264;19.884;2023-04-25T01:20:23;359.00;2329.60
55329;DHT22;41205;44.264;19.884;2023-04-25T01:22:51;359.00;2329.60
55329;DHT22;41205;44.264;19.884;2023-04-25T01:25:17;359.00;2329.60
55329;DHT22;41205;44.264;19.884;2023-04-25T01:27:44;359.00;2329.60
55329;DHT22;41205;44.264;19.884;2023-04-25T01:30:10;358.90;2329.60
55329;DHT22;41205;44.264;19.884;2023-04-25T01:32:36;359.00;2329.60
55329;DHT22;41205;44.264;19.884;2023-04-25T01:35:10;359.00;2329.60
55329;DHT22;41205;44.264;19.884;2023-04-25T01:37:40;359.00;2329.60
55329;DHT22;41205;44.264;19.884;2023-04-25T01:40:10;359.00;2329.60
55329;DHT22;41205;44.264;19.884;2023-04-25T01:42:38;359.00;2329.60
55329;DHT22;41205;44.264;19.884;2023-04-25T01:45:05;359.00;2329.60
55329;DHT22;41205;44.264;19.884;2023-04-25T01:47:31;359.00;2329.60
55329;DHT22;41205;44.264;19.884;2023-04-25T01:49:57;359.00;2329.60
55329;DHT22;41205;44.264;19.884;2023-04-25T01:52:23;358.90;2329.60
55329;DHT22;41205;44.264;19.884;2023-04-25T01:54:49;358.90;2329.60
55329;DHT22;41205;44.264;19.884;2023-04-25T01:57:16;358.90;2329.60
55329;DHT22;41205;44.264;19.884;2023-04-25T01:59:43;358.80;2329.60
55329;DHT22;41205;44.264;19.884;2023-04-25T02:02:09;358.80;2329.60
55329;DHT22;41205;44.264;19.884;2023-04-25T02:04:35;358.80;2329.60
55329;DHT22;41205;44.264;19.884;2023-04-25T02:07:01;358.80;2329.60
55329;DHT22;41205;44.264;19.884;2023-04-25T02:09:26;358.80;2329.60
55329;DHT22;41205;44.264;19.884;2023-04-25T02:11:52;358.80;2329.60
55329;DHT22;41205;44.264;19.884;2023-04-25T02:14:18;358.80;2329.60
55329;DHT22;41205;44.264;19.884;2023-04-25T02:16:44;358.80;2329.60
55329;DHT22;41205;44.264;19.884;2023-04-25T02:19:10;358.80;2329.60
55329;DHT22;41205;44.264;19.884;2023-04-25T02:21:36;358.80;2329.60
55329;DHT22;41205;44.264;19.884;2023-04-25T02:24:02;358.80;2329.60
55329;DHT22;41205;44.264;19.884;2023-04-25T02:26:28;358.80;2329.60
55329;DHT22;41205;44.264;19.884;2023-04-25T02:28:54;358.80;2329.60
55329;DHT22;41205;44.264;19.884;2023-04-25T02:31:20;358.80;2329.60
55329;DHT22;41205;44.264;19.884;2023-04-25T02:33:46;358.80;2329.60
55329;DHT22;41205;44.264;19.884;2023-04-25T02:36:12;358.80;2329.60
55329;DHT22;41205;44.264;19.884;2023-04-25T02:38:38;358.70;2329.60
55329;DHT22;41205;44.264;19.884;2023-04-25T02:41:05;358.80;2329.60
55329;DHT22;41205;44.264;19.884;2023-04-25T02:43:31;358.70;2329.60
55329;DHT22;41205;44.264;19.884;2023-04-25T02:45:57;358.70;2329.60
55329;DHT22;41205;44.264;19.884;2023-04-25T02:48:22;358.70;2329.60
55329;DHT22;41205;44.264;19.884;2023-04-25T02:50:48;358.70;2329.60
55329;DHT22;41205;44.264;19.884;2023-04-25T02:53:14;358.60;2329.60
55329;DHT22;41205;44.264;19.884;2023-04-25T02:55:39;358.60;2329.60
55329;DHT22;41205;44.264;19.884;2023-04-25T02:58:05;358.60;2329.60
55329;DHT22;41205;44.264;19.884;2023-04-25T03:00:31;358.60;2329.60
55329;DHT22;41205;44.264;19.884;2023-04-25T03:02:57;358.60;2329.60
55329;DHT22;41205;44.264;19.884;2023-04-25T03:05:23;358.70;2329.60
55329;DHT22;41205;44.264;19.884;2023-04-25T03:07:48;358.60;2329.60
55329;DHT22;41205;44.264;19.884;2023-04-25T03:10:14;358.60;2329.60
55329;DHT22;41205;44.264;19.884;2023-04-25T03:12:40;358.60;2329.60
55329;DHT22;41205;44.264;19.884;2023-04-25T03:15:07;358.60;2329.60
55329;DHT22;41205;44.264;19.884;2023-04-25T03:17:33;358.50;2329.60
55329;DHT22;41205;44.264;19.884;2023-04-25T03:19:58;358.40;2329.60
55329;DHT22;41205;44.264;19.884;2023-04-25T03:22:24;358.40;2329.60
55329;DHT22;41205;44.264;19.884;2023-04-25T03:24:50;333.70;2329.60
55329;DHT22;41205;44.264;19.884;2023-04-25T03:27:16;358.40;2329.60
55329;DHT22;41205;44.264;19.884;2023-04-25T03:29:42;358.40;2329.60
55329;DHT22;41205;44.264;19.884;2023-04-25T03:32:08;358.40;2329.60
55329;DHT22;41205;44.264;19.884;2023-04-25T03:34:34;358.50;2329.60
55329;DHT22;41205;44.264;19.884;2023-04-25T03:37:00;358.50;2329.60
55329;DHT22;41205;44.264;19.884;2023-04-25T03:39:26;358.50;2329.60
55329;DHT22;41205;44.264;19.884;2023-04-25T03:41:51;358.40;2329.60
55329;DHT22;41205;44.264;19.884;2023-04-25T03:44:17;358.40;2329.60
55329;DHT22;41205;44.264;19.884;2023-04-25T03:46:43;358.40;2329.60
55329;DHT22;41205;44.264;19.884;2023-04-25T03:49:09;358.40;2329.60
55329;DHT22;41205;44.264;19.884;2023-04-25T03:51:35;358.40;2329.60
55329;DHT22;41205;44.264;19.884;2023-04-25T03:54:00;358.40;2329.60
55329;DHT22;41205;44.264;19.884;2023-04-25T03:56:26;358.40;2329.60
55329;DHT22;41205;44.264;19.884;2023-04-25T03:58:52;358.40;2329.60
55329;DHT22;41205;44.264;19.884;2023-04-25T04:01:17;358.40;2329.60
55329;DHT22;41205;44.264;19.884;2023-04-25T04:03:43;358.40;2329.60
55329;DHT22;41205;44.264;19.884;2023-04-25T04:06:09;358.50;2329.60
55329;DHT22;41205;44.264;19.884;2023-04-25T04:08:36;358.50;2329.60
55329;DHT22;41205;44.264;19.884;2023-04-25T04:11:01;358.50;2329.60
55329;DHT22;41205;44.264;19.884;2023-04-25T04:13:27;358.50;2329.60
55329;DHT22;41205;44.264;19.884;2023-04-25T04:15:54;358.50;2329.60
55329;DHT22;41205;44.264;19.884;2023-04-25T04:18:21;333.70;2329.60
55329;DHT22;41205;44.264;19.884;2023-04-25T04:20:47;358.40;2329.60
55329;DHT22;41205;44.264;19.884;2023-04-25T04:23:13;333.70;2329.60
55329;DHT22;41205;44.264;19.884;2023-04-25T04:25:38;333.60;2329.60
55329;DHT22;41205;44.264;19.884;2023-04-25T04:28:05;333.60;2329.60
55329;DHT22;41205;44.264;19.884;2023-04-25T04:30:31;333.50;2329.60
55329;DHT22;41205;44.264;19.884;2023-04-25T04:32:59;333.40;2329.60
55329;DHT22;41205;44.264;19.884;2023-04-25T04:35:26;333.40;2329.60
55329;DHT22;41205;44.264;19.884;2023-04-25T04:37:52;333.50;2329.60
55329;DHT22;41205;44.264;19.884;2023-04-25T04:40:18;333.40;2329.60
55329;DHT22;41205;44.264;19.884;2023-04-25T04:42:44;333.40;2329.60
55329;DHT22;41205;44.264;19.884;2023-04-25T04:45:14;333.40;2329.60
55329;DHT22;41205;44.264;19.884;2023-04-25T04:47:40;333.40;2329.60
55329;DHT22;41205;44.264;19.884;2023-04-25T04:50:09;333.40;2329.60
55329;DHT22;41205;44.264;19.884;2023-04-25T04:52:36;333.40;2329.60
55329;DHT22;41205;44.264;19.884;2023-04-25T04:55:06;333.40;2329.60
55329;DHT22;41205;44.264;19.884;2023-04-25T04:57:34;333.40;2329.60
55329;DHT22;41205;44.264;19.884;2023-04-25T05:00:00;333.40;2329.60
55329;DHT22;41205;44.264;19.884;2023-04-25T05:02:26;333.30;2329.60
55329;DHT22;41205;44.264;19.884;2023-04-25T05:04:52;333.20;2329.60
55329;DHT22;41205;44.264;19.884;2023-04-25T05:07:19;333.30;2329.60
55329;DHT22;41205;44.264;19.884;2023-04-25T05:09:44;333.20;2329.60
55329;DHT22;41205;44.264;19.884;2023-04-25T05:12:10;333.10;2329.60
55329;DHT22;41205;44.264;19.884;2023-04-25T05:14:36;333.20;2329.60
55329;DHT22;41205;44.264;19.884;2023-04-25T05:17:02;333.20;2329.60
55329;DHT22;41205;44.264;19.884;2023-04-25T05:19:30;333.10;2329.60
55329;DHT22;41205;44.264;19.884;2023-04-25T05:21:56;333.00;2329.60
55329;DHT22;41205;44.264;19.884;2023-04-25T05:24:21;333.00;2329.60
55329;DHT22;41205;44.264;19.884;2023-04-25T05:26:47;332.90;2329.60
55329;DHT22;41205;44.264;19.884;2023-04-25T05:29:13;333.00;2329.60
55329;DHT22;41205;44.264;19.884;2023-04-25T05:31:38;333.00;2329.60
55329;DHT22;41205;44.264;19.884;2023-04-25T05:34:04;332.80;2329.60
55329;DHT22;41205;44.264;19.884;2023-04-25T05:36:30;332.90;2329.60
55329;DHT22;41205;44.264;19.884;2023-04-25T05:38:57;332.90;2329.60
55329;DHT22;41205;44.264;19.884;2023-04-25T05:41:23;332.90;2329.60
55329;DHT22;41205;44.264;19.884;2023-04-25T05:43:49;333.00;2329.60
55329;DHT22;41205;44.264;19.884;2023-04-25T05:46:15;332.90;2329.60
55329;DHT22;41205;44.264;19.884;2023-04-25T05:48:42;332.90;2329.60
55329;DHT22;41205;44.264;19.884;2023-04-25T05:51:08;333.00;2329.60
55329;DHT22;41205;44.264;19.884;2023-04-25T05:53:34;332.80;2329.60
55329;DHT22;41205;44.264;19.884;2023-04-25T05:56:00;308.10;2304.00
55329;DHT22;41205;44.264;19.884;2023-04-25T05:58:26;308.10;2304.00
55329;DHT22;41205;44.264;19.884;2023-04-25T06:00:52;308.00;2304.00
55329;DHT22;41205;44.264;19.884;2023-04-25T06:03:18;308.00;2304.00
55329;DHT22;41205;44.264;19.884;2023-04-25T06:05:43;307.90;2304.00
55329;DHT22;41205;44.264;19.884;2023-04-25T06:08:09;307.80;2304.00
55329;DHT22;41205;44.264;19.884;2023-04-25T06:10:36;307.80;2304.00
55329;DHT22;41205;44.264;19.884;2023-04-25T06:13:02;307.80;2304.00
55329;DHT22;41205;44.264;19.884;2023-04-25T06:15:28;307.70;2304.00
55329;DHT22;41205;44.264;19.884;2023-04-25T06:17:54;307.80;2304.00
55329;DHT22;41205;44.264;19.884;2023-04-25T06:20:19;307.70;2304.00
55329;DHT22;41205;44.264;19.884;2023-04-25T06:22:49;307.70;2304.00
55329;DHT22;41205;44.264;19.884;2023-04-25T06:25:15;307.60;2304.00
55329;DHT22;41205;44.264;19.884;2023-04-25T06:27:41;307.60;2304.00
55329;DHT22;41205;44.264;19.884;2023-04-25T06:30:07;307.70;2304.00
55329;DHT22;41205;44.264;19.884;2023-04-25T06:32:32;307.90;2304.00
55329;DHT22;41205;44.264;19.884;2023-04-25T06:35:00;307.80;2304.00
55329;DHT22;41205;44.264;19.884;2023-04-25T06:37:25;307.80;2304.00
55329;DHT22;41205;44.264;19.884;2023-04-25T06:39:51;307.80;2304.00
55329;DHT22;41205;44.264;19.884;2023-04-25T06:42:17;307.60;2304.00
55329;DHT22;41205;44.264;19.884;2023-04-25T06:44:43;307.60;2304.00
55329;DHT22;41205;44.264;19.884;2023-04-25T06:47:08;307.50;2304.00
55329;DHT22;41205;44.264;19.884;2023-04-25T06:49:34;307.60;2304.00
55329;DHT22;41205;44.264;19.884;2023-04-25T06:52:00;307.70;2304.00
55329;DHT22;41205;44.264;19.884;2023-04-25T06:54:26;307.80;2304.00
55329;DHT22;41205;44.264;19.884;2023-04-25T06:56:54;307.80;2304.00
55329;DHT22;41205;44.264;19.884;2023-04-25T06:59:19;307.80;2304.00
55329;DHT22;41205;44.264;19.884;2023-04-25T07:01:45;307.90;2304.00
55329;DHT22;41205;44.264;19.884;2023-04-25T07:04:11;308.00;2304.00
55329;DHT22;41205;44.264;19.884;2023-04-25T07:06:36;308.10;2304.00
55329;DHT22;41205;44.264;19.884;2023-04-25T07:09:11;332.80;2329.60
55329;DHT22;41205;44.264;19.884;2023-04-25T07:11:37;333.00;2329.60
55329;DHT22;41205;44.264;19.884;2023-04-25T07:14:03;333.20;2329.60
55329;DHT22;41205;44.264;19.884;2023-04-25T07:16:29;333.20;2329.60
55329;DHT22;41205;44.264;19.884;2023-04-25T07:18:54;333.40;2329.60
55329;DHT22;41205;44.264;19.884;2023-04-25T07:21:20;333.60;2329.60
55329;DHT22;41205;44.264;19.884;2023-04-25T07:23:46;333.60;2329.60
55329;DHT22;41205;44.264;19.884;2023-04-25T07:26:12;358.40;2329.60
55329;DHT22;41205;44.264;19.884;2023-04-25T07:28:38;358.40;2329.60
55329;DHT22;41205;44.264;19.884;2023-04-25T07:31:04;358.50;2329.60
55329;DHT22;41205;44.264;19.884;2023-04-25T07:33:30;358.50;2329.60
55329;DHT22;41205;44.264;19.884;2023-04-25T07:35:56;358.70;2329.60
55329;DHT22;41205;44.264;19.884;2023-04-25T07:38:22;358.70;2329.60
55329;DHT22;41205;44.264;19.884;2023-04-25T07:40:48;358.80;2329.60
55329;DHT22;41205;44.264;19.884;2023-04-25T07:43:15;358.90;2329.60
55329;DHT22;41205;44.264;19.884;2023-04-25T07:45:45;358.70;2329.60
55329;DHT22;41205;44.264;19.884;2023-04-25T07:48:13;358.70;2329.60
55329;DHT22;41205;44.264;19.884;2023-04-25T07:50:41;358.90;2329.60
55329;DHT22;41205;44.264;19.884;2023-04-25T07:53:07;359.10;2329.60
55329;DHT22;41205;44.264;19.884;2023-04-25T07:55:32;359.00;2329.60
55329;DHT22;41205;44.264;19.884;2023-04-25T07:57:58;358.80;2329.60
55329;DHT22;41205;44.264;19.884;2023-04-25T08:00:24;358.90;2329.60
55329;DHT22;41205;44.264;19.884;2023-04-25T08:02:49;359.00;2329.60
55329;DHT22;41205;44.264;19.884;2023-04-25T08:05:16;359.20;2329.60
55329;DHT22;41205;44.264;19.884;2023-04-25T08:07:42;359.30;2329.60
55329;DHT22;41205;44.264;19.884;2023-04-25T08:10:09;384.00;2329.60
55329;DHT22;41205;44.264;19.884;2023-04-25T08:12:35;384.30;2329.60
55329;DHT22;41205;44.264;19.884;2023-04-25T08:15:00;384.60;2329.60
55329;DHT22;41205;44.264;19.884;2023-04-25T08:17:26;384.60;2329.60
55329;DHT22;41205;44.264;19.884;2023-04-25T08:19:52;384.60;2329.60
55329;DHT22;41205;44.264;19.884;2023-04-25T08:22:18;384.70;2329.60
55329;DHT22;41205;44.264;19.884;2023-04-25T08:24:44;384.30;2329.60
55329;DHT22;41205;44.264;19.884;2023-04-25T08:27:09;384.40;2329.60
55329;DHT22;41205;44.264;19.884;2023-04-25T08:29:35;384.50;2329.60
55329;DHT22;41205;44.264;19.884;2023-04-25T08:32:01;384.70;2329.60
55329;DHT22;41205;44.264;19.884;2023-04-25T08:34:26;409.70;2355.20
55329;DHT22;41205;44.264;19.884;2023-04-25T08:36:52;410.00;2355.20
55329;DHT22;41205;44.264;19.884;2023-04-25T08:39:18;410.30;2355.20
55329;DHT22;41205;44.264;19.884;2023-04-25T08:41:44;435.30;2355.20
55329;DHT22;41205;44.264;19.884;2023-04-25T08:44:11;435.60;2355.20
55329;DHT22;41205;44.264;19.884;2023-04-25T08:46:40;436.10;2304.00
55329;DHT22;41205;44.264;19.884;2023-04-25T08:49:07;460.90;2252.80
55329;DHT22;41205;44.264;19.884;2023-04-25T08:51:36;460.90;2278.40
55329;DHT22;41205;44.264;19.884;2023-04-25T08:54:10;460.90;2278.40
55329;DHT22;41205;44.264;19.884;2023-04-25T08:56:38;461.20;2227.20
55329;DHT22;41205;44.264;19.884;2023-04-25T08:59:05;461.00;2176.00
55329;DHT22;41205;44.264;19.884;2023-04-25T09:01:34;461.30;2150.40
55329;DHT22;41205;44.264;19.884;2023-04-25T09:04:00;461.70;2124.80
55329;DHT22;41205;44.264;19.884;2023-04-25T09:06:28;461.70;2099.20
55329;DHT22;41205;44.264;19.884;2023-04-25T09:08:54;461.70;2073.60
55329;DHT22;41205;44.264;19.884;2023-04-25T09:11:20;486.40;2124.80
55329;DHT22;41205;44.264;19.884;2023-04-25T09:13:45;486.70;2099.20
55329;DHT22;41205;44.264;19.884;2023-04-25T09:16:11;486.50;2073.60
55329;DHT22;41205;44.264;19.884;2023-04-25T09:18:37;461.50;2048.00
55329;DHT22;41205;44.264;19.884;2023-04-25T09:21:12;461.20;2073.60
55329;DHT22;41205;44.264;19.884;2023-04-25T09:23:44;461.00;2073.60
55329;DHT22;41205;44.264;19.884;2023-04-25T09:26:14;461.20;2099.20
55329;DHT22;41205;44.264;19.884;2023-04-25T09:28:41;461.10;2124.80
55329;DHT22;41205;44.264;19.884;2023-04-25T09:31:10;460.90;2124.80
55329;DHT22;41205;44.264;19.884;2023-04-25T09:33:37;436.00;2124.80
55329;DHT22;41205;44.264;19.884;2023-04-25T09:36:07;435.90;2150.40
55329;DHT22;41205;44.264;19.884;2023-04-25T09:38:41;435.90;2099.20
55329;DHT22;41205;44.264;19.884;2023-04-25T09:41:08;435.90;2073.60
55329;DHT22;41205;44.264;19.884;2023-04-25T09:43:34;435.60;2124.80
55329;DHT22;41205;44.264;19.884;2023-04-25T09:46:01;435.50;2150.40
55329;DHT22;41205;44.264;19.884;2023-04-25T09:48:28;435.60;2176.00
55329;DHT22;41205;44.264;19.884;2023-04-25T09:51:11;435.30;2176.00
55329;DHT22;41205;44.264;19.884;2023-04-25T09:53:45;435.60;2201.60
55329;DHT22;41205;44.264;19.884;2023-04-25T09:56:16;436.00;2176.00
55329;DHT22;41205;44.264;19.884;2023-04-25T09:58:44;461.10;2176.00
55329;DHT22;41205;44.264;19.884;2023-04-25T10:01:11;461.50;2124.80
55329;DHT22;41205;44.264;19.884;2023-04-25T10:03:38;486.70;2073.60
55329;DHT22;41205;44.264;19.884;2023-04-25T10:06:12;486.90;2099.20
55329;DHT22;41205;44.264;19.884;2023-04-25T10:08:40;486.70;2048.00
55329;DHT22;41205;44.264;19.884;2023-04-25T10:11:08;486.90;1971.20
55329;DHT22;41205;44.264;19.884;2023-04-25T10:13:35;487.00;1996.80
55329;DHT22;41205;44.264;19.884;2023-04-25T10:16:03;512.00;1920.00
55329;DHT22;41205;44.264;19.884;2023-04-25T10:18:30;512.30;1894.40
55329;DHT22;41205;44.264;19.884;2023-04-25T10:21:01;512.60;1843.20
55329;DHT22;41205;44.264;19.884;2023-04-25T10:23:27;512.90;1894.40
55329;DHT22;41205;44.264;19.884;2023-04-25T10:25:55;512.30;1894.40
55329;DHT22;41205;44.264;19.884;2023-04-25T10:28:21;512.00;1894.40
55329;DHT22;41205;44.264;19.884;2023-04-25T10:31:07;512.30;1843.20
55329;DHT22;41205;44.264;19.884;2023-04-25T10:33:37;512.10;1843.20
55329;DHT22;41205;44.264;19.884;2023-04-25T10:38:39;487.00;1894.40
55329;DHT22;41205;44.264;19.884;2023-04-25T10:41:07;486.90;1920.00
55329;DHT22;41205;44.264;19.884;2023-04-25T10:43:40;487.10;1894.40
55329;DHT22;41205;44.264;19.884;2023-04-25T10:46:27;486.80;1868.80
55329;DHT22;41205;44.264;19.884;2023-04-25T10:48:59;487.10;1843.20
55329;DHT22;41205;44.264;19.884;2023-04-25T10:51:29;487.20;1843.20
55329;DHT22;41205;44.264;19.884;2023-04-25T10:54:00;487.10;1868.80
55329;DHT22;41205;44.264;19.884;2023-04-25T10:56:37;487.10;1843.20
55329;DHT22;41205;44.264;19.884;2023-04-25T10:59:11;487.30;1868.80
55329;DHT22;41205;44.264;19.884;2023-04-25T11:04:04;512.30;1843.20
55329;DHT22;41205;44.264;19.884;2023-04-25T11:09:01;512.30;1817.60
55329;DHT22;41205;44.264;19.884;2023-04-25T11:11:28;487.30;1817.60
55329;DHT22;41205;44.264;19.884;2023-04-25T11:13:55;487.10;1817.60
55329;DHT22;41205;44.264;19.884;2023-04-25T11:16:24;486.80;1843.20
55329;DHT22;41205;44.264;19.884;2023-04-25T11:18:50;486.80;1843.20
55329;DHT22;41205;44.264;19.884;2023-04-25T11:21:16;486.70;1894.40
55329;DHT22;41205;44.264;19.884;2023-04-25T11:23:45;486.70;1894.40
55329;DHT22;41205;44.264;19.884;2023-04-25T11:26:13;486.50;1894.40
55329;DHT22;41205;44.264;19.884;2023-04-25T11:28:39;486.40;1894.40
55329;DHT22;41205;44.264;19.884;2023-04-25T11:31:05;486.60;1894.40
55329;DHT22;41205;44.264;19.884;2023-04-25T11:33:31;461.70;1894.40
55329;DHT22;41205;44.264;19.884;2023-04-25T11:35:56;486.40;1894.40
55329;DHT22;41205;44.264;19.884;2023-04-25T11:38:23;486.40;1894.40
55329;DHT22;41205;44.264;19.884;2023-04-25T11:40:54;486.50;1920.00
55329;DHT22;41205;44.264;19.884;2023-04-25T11:43:21;486.80;1868.80
55329;DHT22;41205;44.264;19.884;2023-04-25T11:45:51;487.10;1843.20
55329;DHT22;41205;44.264;19.884;2023-04-25T11:48:18;512.10;1792.00
55329;DHT22;41205;44.264;19.884;2023-04-25T11:50:44;512.20;1792.00
55329;DHT22;41205;44.264;19.884;2023-04-25T11:53:12;512.50;1766.40
55329;DHT22;41205;44.264;19.884;2023-04-25T11:55:38;512.00;1817.60
55329;DHT22;41205;44.264;19.884;2023-04-25T11:58:05;512.10;1843.20
55329;DHT22;41205;44.264;19.884;2023-04-25T12:00:31;512.30;1792.00
55329;DHT22;41205;44.264;19.884;2023-04-25T12:02:57;512.30;1792.00
55329;DHT22;41205;44.264;19.884;2023-04-25T12:05:26;512.70;1792.00
55329;DHT22;41205;44.264;19.884;2023-04-25T12:07:52;512.50;1792.00
55329;DHT22;41205;44.264;19.884;2023-04-25T12:10:20;512.30;1792.00
55329;DHT22;41205;44.264;19.884;2023-04-25T12:12:47;512.60;1792.00
55329;DHT22;41205;44.264;19.884;2023-04-25T12:15:17;537.60;1792.00
55329;DHT22;41205;44.264;19.884;2023-04-25T12:17:47;537.60;1817.60
55329;DHT22;41205;44.264;19.884;2023-04-25T12:20:17;512.80;1792.00
55329;DHT22;41205;44.264;19.884;2023-04-25T12:22:44;512.90;1766.40
55329;DHT22;41205;44.264;19.884;2023-04-25T12:25:11;512.90;1817.60
55329;DHT22;41205;44.264;19.884;2023-04-25T12:27:38;512.70;1792.00
55329;DHT22;41205;44.264;19.884;2023-04-25T12:30:08;512.50;1766.40
55329;DHT22;41205;44.264;19.884;2023-04-25T12:32:34;487.30;1766.40
55329;DHT22;41205;44.264;19.884;2023-04-25T12:34:59;512.10;1766.40
55329;DHT22;41205;44.264;19.884;2023-04-25T12:37:25;512.00;1792.00
55329;DHT22;41205;44.264;19.884;2023-04-25T12:39:51;512.00;1817.60
55329;DHT22;41205;44.264;19.884;2023-04-25T12:42:17;512.10;1817.60
55329;DHT22;41205;44.264;19.884;2023-04-25T12:44:43;512.00;1766.40
55329;DHT22;41205;44.264;19.884;2023-04-25T12:47:08;487.20;1792.00
55329;DHT22;41205;44.264;19.884;2023-04-25T12:49:34;487.10;1792.00
55329;DHT22;41205;44.264;19.884;2023-04-25T12:52:00;486.90;1817.60
55329;DHT22;41205;44.264;19.884;2023-04-25T12:54:26;486.70;1843.20
55329;DHT22;41205;44.264;19.884;2023-04-25T12:56:51;486.50;1868.80
55329;DHT22;41205;44.264;19.884;2023-04-25T12:59:18;486.70;1817.60
55329;DHT22;41205;44.264;19.884;2023-04-25T13:01:43;486.70;1843.20
55329;DHT22;41205;44.264;19.884;2023-04-25T13:04:10;486.90;1843.20
55329;DHT22;41205;44.264;19.884;2023-04-25T13:06:36;486.90;1817.60
55329;DHT22;41205;44.264;19.884;2023-04-25T13:09:03;487.10;1817.60
55329;DHT22;41205;44.264;19.884;2023-04-25T13:11:29;487.30;1843.20
55329;DHT22;41205;44.264;19.884;2023-04-25T13:13:56;512.00;1792.00
55329;DHT22;41205;44.264;19.884;2023-04-25T13:16:21;487.10;1766.40
55329;DHT22;41205;44.264;19.884;2023-04-25T13:18:48;512.00;1792.00
55329;DHT22;41205;44.264;19.884;2023-04-25T13:21:13;487.30;1740.80
55329;DHT22;41205;44.264;19.884;2023-04-25T13:23:40;512.30;1740.80
55329;DHT22;41205;44.264;19.884;2023-04-25T13:26:08;512.10;1740.80
55329;DHT22;41205;44.264;19.884;2023-04-25T13:28:33;512.10;1715.20
55329;DHT22;41205;44.264;19.884;2023-04-25T13:30:59;512.00;1740.80
55329;DHT22;41205;44.264;19.884;2023-04-25T13:33:25;487.30;1740.80
55329;DHT22;41205;44.264;19.884;2023-04-25T13:35:51;512.00;1715.20
55329;DHT22;41205;44.264;19.884;2023-04-25T13:38:22;487.10;1766.40
55329;DHT22;41205;44.264;19.884;2023-04-25T13:40:49;487.10;1740.80
55329;DHT22;41205;44.264;19.884;2023-04-25T13:43:15;486.90;1792.00
55329;DHT22;41205;44.264;19.884;2023-04-25T13:45:41;487.10;1740.80
55329;DHT22;41205;44.264;19.884;2023-04-25T13:48:07;487.10;1766.40
55329;DHT22;41205;44.264;19.884;2023-04-25T13:50:33;487.00;1766.40
55329;DHT22;41205;44.264;19.884;2023-04-25T13:52:58;487.10;1740.80
55329;DHT22;41205;44.264;19.884;2023-04-25T13:55:24;486.90;1715.20
55329;DHT22;41205;44.264;19.884;2023-04-25T13:57:50;486.90;1715.20
55329;DHT22;41205;44.264;19.884;2023-04-25T14:00:16;486.80;1740.80
55329;DHT22;41205;44.264;19.884;2023-04-25T14:02:42;487.00;1715.20
55329;DHT22;41205;44.264;19.884;2023-04-25T14:05:08;486.90;1740.80
55329;DHT22;41205;44.264;19.884;2023-04-25T14:07:35;487.00;1740.80
55329;DHT22;41205;44.264;19.884;2023-04-25T14:10:01;487.10;1766.40
55329;DHT22;41205;44.264;19.884;2023-04-25T14:12:27;487.10;1740.80
55329;DHT22;41205;44.264;19.884;2023-04-25T14:14:52;487.20;1766.40
55329;DHT22;41205;44.264;19.884;2023-04-25T14:17:19;487.30;1715.20
55329;DHT22;41205;44.264;19.884;2023-04-25T14:19:45;487.10;1689.60
55329;DHT22;41205;44.264;19.884;2023-04-25T14:22:13;487.00;1715.20
55329;DHT22;41205;44.264;19.884;2023-04-25T14:24:39;486.90;1715.20
55329;DHT22;41205;44.264;19.884;2023-04-25T14:27:04;487.10;1740.80
55329;DHT22;41205;44.264;19.884;2023-04-25T14:29:30;487.00;1740.80
55329;DHT22;41205;44.264;19.884;2023-04-25T14:31:56;487.10;1715.20
55329;DHT22;41205;44.264;19.884;2023-04-25T14:34:24;487.10;1715.20
55329;DHT22;41205;44.264;19.884;2023-04-25T14:36:51;487.30;1689.60
55329;DHT22;41205;44.264;19.884;2023-04-25T14:39:16;487.20;1715.20
55329;DHT22;41205;44.264;19.884;2023-04-25T14:41:42;487.20;1740.80